Time;durP1;ratioP1;P1;durP2;ratioP2;P2;SDS_P1;SDS_P2;PMS_P1;PMS_P2;Temp;Humidity;BMP_temperature;BMP_pressure;BME280_temperature;BME280_humidity;BME280_pressure;Samples;Min_cycle;Max_cycle;Signal;HPM_P1;HPM_P2
2021/12/10 00:00:00;;;;;;;4.88;1.40;;;16.50;57.70;;;;;;5082786;28;20040;-79
2021/12/10 00:02:34;;;;;;;3.33;1.33;;;16.50;57.70;;;;;;5072559;28;20032;-79
2021/12/10 00:05:01;;;;;;;4.43;1.00;;;16.40;57.70;;;;;;5071938;28;20078;-79
2021/12/10 00:07:27;;;;;;;3.20;1.50;;;16.40;57.70;;;;;;5071563;28;20021;-79
2021/12/10 00:09:59;;;;;;;3.47;1.50;;;16.40;57.70;;;;;;5071807;28;20048;-80
2021/12/10 00:12:32;;;;;;;5.50;1.58;;;16.40;57.70;;;;;;5071612;28;20108;-80
2021/12/10 00:14:57;;;;;;;2.95;1.30;;;16.30;57.70;;;;;;5073049;28;20032;-80
2021/12/10 00:17:23;;;;;;;3.67;1.20;;;16.30;57.80;;;;;;5073386;28;20021;-78
2021/12/10 00:19:56;;;;;;;2.17;0.90;;;16.30;57.90;;;;;;5091263;28;20414;-80
2021/12/10 00:22:40;;;;;;;4.15;1.77;;;16.30;58.00;;;;;;5071513;28;20031;-80
2021/12/10 00:25:10;;;;;;;3.90;1.27;;;16.20;57.90;;;;;;5075613;28;20028;-79
2021/12/10 00:27:36;;;;;;;4.00;1.40;;;16.20;57.90;;;;;;5087877;28;20017;-80
2021/12/10 00:30:15;;;;;;;3.58;1.02;;;16.30;58.00;;;;;;5085104;28;20016;-79
2021/12/10 00:32:53;;;;;;;3.10;1.13;;;16.20;57.90;;;;;;5083294;28;20020;-79
2021/12/10 00:35:25;;;;;;;3.38;1.23;;;16.20;58.00;;;;;;5091197;28;20040;-79
2021/12/10 00:37:51;;;;;;;3.60;1.25;;;16.20;58.00;;;;;;5071507;28;20024;-80
2021/12/10 00:40:19;;;;;;;3.15;1.48;;;16.10;58.00;;;;;;5076606;28;20028;-80
2021/12/10 00:42:45;;;;;;;3.17;1.33;;;16.10;58.00;;;;;;5082488;28;20020;-79
2021/12/10 00:45:13;;;;;;;3.03;1.15;;;16.20;58.00;;;;;;5077565;28;20025;-80
2021/12/10 00:47:39;;;;;;;4.03;1.23;;;16.20;58.10;;;;;;5072716;28;20036;-80
2021/12/10 00:50:08;;;;;;;3.60;1.58;;;16.10;58.00;;;;;;5090559;28;20028;-81
2021/12/10 00:52:34;;;;;;;2.75;1.10;;;16.10;58.10;;;;;;5073270;28;20453;-81
2021/12/10 00:55:00;;;;;;;4.10;1.20;;;16.10;58.10;;;;;;5071091;28;20056;-79
2021/12/10 00:57:25;;;;;;;3.90;1.70;;;16.10;58.10;;;;;;5075976;28;20024;-81
2021/12/10 00:59:52;;;;;;;2.92;1.10;;;16.10;58.10;;;;;;5059158;28;20111;-79
2021/12/10 01:02:21;;;;;;;3.63;1.33;;;16.10;58.00;;;;;;5082662;28;20480;-80
2021/12/10 01:04:50;;;;;;;2.95;1.23;;;16.10;58.00;;;;;;5079634;28;20025;-80
2021/12/10 01:07:20;;;;;;;2.42;0.82;;;16.10;58.10;;;;;;5073884;28;20025;-79
2021/12/10 01:09:49;;;;;;;2.10;1.10;;;16.10;58.10;;;;;;5077503;28;20024;-79
2021/12/10 01:12:26;;;;;;;2.70;1.10;;;16.10;58.10;;;;;;5077499;28;20021;-80
2021/12/10 01:15:21;;;;;;;3.30;1.20;;;16.10;58.10;;;;;;5089849;28;20046;-79
2021/12/10 01:28:56;;;;;;;2.40;1.05;;;16.10;58.10;;;;;;5097815;28;20028;-79
2021/12/10 01:31:22;;;;;;;3.15;1.00;;;16.10;58.10;;;;;;5095284;28;20479;-79
2021/12/10 01:33:50;;;;;;;3.15;1.10;;;16.10;58.10;;;;;;5077497;28;20053;-79
2021/12/10 01:36:16;;;;;;;1.90;0.90;;;16.10;58.10;;;;;;5077316;28;20464;-79
2021/12/10 01:38:45;;;;;;;3.45;1.13;;;16.10;58.10;;;;;;5077554;28;20096;-79
2021/12/10 01:41:15;;;;;;;1.80;0.70;;;16.10;58.10;;;;;;5077165;28;20460;-79
2021/12/10 01:43:43;;;;;;;2.38;1.10;;;16.10;58.10;;;;;;5077497;28;20023;-79
2021/12/10 01:46:18;;;;;;;2.63;1.08;;;16.10;58.10;;;;;;5077073;28;20036;-79
2021/12/10 01:48:54;;;;;;;4.53;1.45;;;16.10;58.10;;;;;;5059848;28;20016;-79
2021/12/10 01:51:24;;;;;;;2.13;0.85;;;16.10;58.10;;;;;;5059053;28;20043;-79
2021/12/10 01:53:53;;;;;;;3.42;1.05;;;16.10;58.00;;;;;;5076912;28;20020;-79
2021/12/10 01:56:28;;;;;;;2.50;0.70;;;16.10;58.00;;;;;;5077050;28;20036;-79
2021/12/10 01:58:54;;;;;;;3.17;1.08;;;16.10;58.10;;;;;;5077161;28;20025;-79
2021/12/10 02:01:31;;;;;;;2.15;0.80;;;16.20;58.10;;;;;;5076943;28;20031;-79
2021/12/10 02:03:58;;;;;;;2.38;1.15;;;16.10;58.10;;;;;;5077218;28;20020;-80
2021/12/10 02:06:24;;;;;;;1.80;0.90;;;16.20;58.10;;;;;;5076832;28;20032;-79
2021/12/10 02:08:51;;;;;;;2.17;0.80;;;16.20;58.10;;;;;;5069012;28;20031;-79
2021/12/10 02:11:18;;;;;;;2.60;1.10;;;16.20;58.10;;;;;;5097352;28;20468;-80
2021/12/10 02:13:45;;;;;;;2.53;0.82;;;16.10;58.10;;;;;;5097495;28;20507;-80
2021/12/10 02:16:11;;;;;;;3.00;0.82;;;16.10;58.10;;;;;;5096992;28;20026;-79
2021/12/10 02:18:36;;;;;;;3.53;1.17;;;16.10;58.10;;;;;;5095625;28;20390;-80
2021/12/10 02:21:02;;;;;;;1.60;0.75;;;16.20;58.20;;;;;;5094050;28;20021;-80
2021/12/10 02:23:38;;;;;;;3.60;0.98;;;16.20;58.20;;;;;;5094021;28;20138;-80
2021/12/10 02:26:06;;;;;;;2.65;0.77;;;16.10;58.10;;;;;;5094145;28;20024;-80
2021/12/10 02:28:32;;;;;;;1.90;0.65;;;16.10;58.10;;;;;;5093861;28;20104;-80
2021/12/10 02:30:59;;;;;;;3.10;0.75;;;16.20;58.20;;;;;;5093880;28;20530;-80
2021/12/10 02:33:25;;;;;;;3.22;0.77;;;16.20;58.10;;;;;;5093813;28;20019;-79
2021/12/10 02:35:51;;;;;;;2.40;0.90;;;16.10;58.10;;;;;;5093995;28;20115;-80
2021/12/10 02:38:19;;;;;;;3.60;1.13;;;16.20;58.10;;;;;;5093572;28;20019;-80
2021/12/10 02:40:50;;;;;;;2.28;0.90;;;16.10;58.10;;;;;;5093676;28;20032;-80
2021/12/10 02:43:18;;;;;;;4.22;0.80;;;16.20;58.10;;;;;;5093374;28;20023;-80
2021/12/10 02:45:47;;;;;;;2.35;0.82;;;16.20;58.10;;;;;;5093521;28;20046;-81
2021/12/10 02:48:13;;;;;;;1.10;0.60;;;16.20;58.10;;;;;;5093495;28;20430;-79
2021/12/10 02:50:39;;;;;;;1.80;0.70;;;16.20;58.10;;;;;;5093456;28;20069;-79
2021/12/10 02:53:07;;;;;;;2.08;0.80;;;16.20;58.10;;;;;;5093983;28;20508;-79
2021/12/10 02:55:34;;;;;;;1.42;0.63;;;16.20;58.10;;;;;;5093568;28;20039;-79
2021/12/10 02:58:05;;;;;;;2.00;0.60;;;16.20;58.10;;;;;;5093159;28;20020;-79
2021/12/10 03:00:40;;;;;;;1.50;0.88;;;16.20;58.10;;;;;;5092715;28;20047;-79
2021/12/10 03:03:05;;;;;;;2.67;0.73;;;16.20;58.10;;;;;;5093663;28;20427;-78
2021/12/10 03:05:31;;;;;;;1.90;0.70;;;16.20;58.10;;;;;;5092972;28;20039;-80
2021/12/10 03:07:57;;;;;;;2.38;0.80;;;16.20;58.10;;;;;;5090354;28;20120;-80
2021/12/10 03:10:28;;;;;;;1.98;0.90;;;16.20;58.00;;;;;;5072912;28;20047;-80
2021/12/10 03:12:54;;;;;;;2.95;0.90;;;16.20;58.00;;;;;;5072990;28;20465;-80
2021/12/10 03:15:22;;;;;;;1.33;0.68;;;16.20;58.00;;;;;;5072652;28;20028;-80
2021/12/10 03:17:48;;;;;;;1.73;0.63;;;16.20;58.00;;;;;;5072729;28;20032;-80
2021/12/10 03:20:16;;;;;;;1.38;0.60;;;16.20;58.00;;;;;;5072695;28;20477;-80
2021/12/10 03:22:42;;;;;;;0.98;0.73;;;16.20;58.20;;;;;;5072721;28;20024;-80
2021/12/10 03:25:12;;;;;;;1.25;0.50;;;16.20;58.00;;;;;;5072070;28;20511;-80
2021/12/10 03:27:38;;;;;;;2.13;0.68;;;16.20;58.00;;;;;;5072643;28;20047;-79
2021/12/10 03:30:09;;;;;;;2.92;1.17;;;16.20;58.00;;;;;;5072006;28;20393;-80
2021/12/10 03:32:36;;;;;;;0.90;0.60;;;16.20;58.00;;;;;;5072372;28;20028;-80
2021/12/10 03:35:09;;;;;;;1.33;0.70;;;16.20;58.00;;;;;;5072519;28;20031;-80
2021/12/10 03:37:36;;;;;;;1.20;0.68;;;16.20;58.00;;;;;;5073066;28;20477;-80
2021/12/10 03:40:04;;;;;;;1.42;0.50;;;16.20;58.00;;;;;;5072203;28;20013;-80
2021/12/10 03:42:30;;;;;;;2.80;0.80;;;16.20;58.00;;;;;;5072113;28;20027;-80
2021/12/10 03:44:55;;;;;;;2.25;0.50;;;16.20;57.90;;;;;;5072330;28;20079;-80
2021/12/10 03:47:21;;;;;;;1.67;0.68;;;16.20;58.00;;;;;;5072094;28;20028;-80
2021/12/10 03:49:47;;;;;;;1.17;0.50;;;16.20;58.00;;;;;;5072084;28;20035;-80
2021/12/10 03:52:12;;;;;;;1.75;0.70;;;16.20;58.00;;;;;;5072051;28;20016;-80
2021/12/10 03:54:40;;;;;;;2.35;0.77;;;16.20;58.00;;;;;;5053989;28;20105;-80
2021/12/10 03:57:07;;;;;;;1.52;0.60;;;16.20;58.00;;;;;;5072476;28;20028;-80
2021/12/10 03:59:35;;;;;;;1.25;0.80;;;16.20;58.00;;;;;;5072327;28;20032;-80
2021/12/10 04:02:02;;;;;;;1.17;0.60;;;16.20;58.00;;;;;;5071919;28;20031;-80
2021/12/10 04:04:33;;;;;;;2.38;0.57;;;16.20;58.00;;;;;;5071284;28;20033;-80
2021/12/10 04:07:06;;;;;;;0.73;0.32;;;16.20;57.90;;;;;;5071906;28;20029;-80
2021/12/10 04:09:31;;;;;;;1.10;0.60;;;16.20;58.50;;;;;;5087267;28;20024;-80
2021/12/10 04:11:58;;;;;;;1.23;0.50;;;16.20;57.90;;;;;;5092012;28;20028;-80
2021/12/10 04:14:24;;;;;;;1.80;0.52;;;16.20;57.90;;;;;;5091690;28;20035;-80
2021/12/10 04:16:56;;;;;;;1.52;0.60;;;16.20;57.90;;;;;;5092064;28;20052;-79
2021/12/10 04:19:25;;;;;;;1.20;0.50;;;16.20;57.90;;;;;;5091764;28;20024;-80
2021/12/10 04:21:55;;;;;;;1.05;0.52;;;16.20;57.90;;;;;;5091792;28;20111;-80
2021/12/10 04:24:23;;;;;;;1.50;0.57;;;16.20;57.90;;;;;;5090576;28;20051;-80
2021/12/10 04:26:49;;;;;;;0.93;0.40;;;16.20;57.90;;;;;;5091791;28;20054;-80
2021/12/10 04:29:15;;;;;;;1.05;0.50;;;16.20;57.90;;;;;;5073256;28;20020;-80
2021/12/10 04:31:41;;;;;;;0.70;0.40;;;16.20;57.90;;;;;;5091846;28;20528;-80
2021/12/10 04:34:07;;;;;;;0.93;0.40;;;16.20;57.90;;;;;;5091942;28;20106;-80
2021/12/10 04:36:34;;;;;;;1.58;0.55;;;16.20;58.50;;;;;;5091409;28;20028;-79
2021/12/10 04:39:00;;;;;;;0.90;0.30;;;16.20;57.90;;;;;;5091484;28;20038;-80
2021/12/10 04:41:26;;;;;;;0.80;0.43;;;16.30;58.00;;;;;;5090952;28;20016;-79
2021/12/10 04:43:52;;;;;;;1.15;0.40;;;16.20;57.90;;;;;;5091579;28;20369;-80
2021/12/10 04:46:18;;;;;;;1.52;0.63;;;16.20;57.90;;;;;;5091253;28;20108;-79
2021/12/10 04:48:49;;;;;;;0.52;0.30;;;16.20;57.90;;;;;;5091306;28;20110;-80
2021/12/10 04:51:17;;;;;;;0.63;0.40;;;16.20;57.90;;;;;;5091168;28;20024;-79
2021/12/10 04:53:42;;;;;;;0.85;0.50;;;16.30;57.90;;;;;;5091321;28;20016;-80
2021/12/10 04:56:08;;;;;;;0.82;0.43;;;16.20;57.90;;;;;;5091502;28;20103;-80
2021/12/10 04:58:34;;;;;;;1.35;0.40;;;16.30;57.90;;;;;;5091313;28;20392;-80
2021/12/10 05:01:02;;;;;;;1.77;0.40;;;16.20;57.80;;;;;;5091264;28;20045;-80
2021/12/10 05:03:28;;;;;;;1.95;0.43;;;16.20;57.80;;;;;;5090817;28;20187;-80
2021/12/10 05:05:59;;;;;;;2.58;0.50;;;16.30;57.90;;;;;;5091099;28;20407;-80
2021/12/10 05:08:25;;;;;;;0.50;0.30;;;16.30;57.90;;;;;;5090885;28;20046;-80
2021/12/10 05:10:51;;;;;;;1.42;0.52;;;16.30;57.80;;;;;;5091050;28;20059;-80
2021/12/10 05:13:17;;;;;;;1.92;0.43;;;16.30;57.80;;;;;;5090832;28;20031;-80
2021/12/10 05:15:44;;;;;;;1.92;0.50;;;16.30;57.80;;;;;;5090877;28;20024;-80
2021/12/10 05:18:12;;;;;;;0.98;0.40;;;16.30;57.80;;;;;;5091279;28;20020;-80
2021/12/10 05:20:41;;;;;;;1.15;0.22;;;16.30;57.80;;;;;;5090999;28;20032;-80
2021/12/10 05:23:07;;;;;;;0.80;0.40;;;16.30;57.80;;;;;;5091554;28;20109;-80
2021/12/10 05:25:33;;;;;;;0.55;0.30;;;16.30;57.80;;;;;;5082421;28;20032;-79
2021/12/10 05:28:00;;;;;;;0.75;0.40;;;16.30;57.80;;;;;;5070785;28;20029;-79
2021/12/10 05:30:28;;;;;;;2.03;0.70;;;16.30;57.80;;;;;;5081008;28;20536;-80
2021/12/10 05:32:54;;;;;;;1.42;0.43;;;16.30;57.80;;;;;;5070801;28;20027;-80
2021/12/10 05:35:20;;;;;;;1.58;0.40;;;16.30;57.80;;;;;;5080390;28;20056;-80
2021/12/10 05:37:45;;;;;;;0.93;0.38;;;16.30;57.80;;;;;;5072882;28;20055;-80
2021/12/10 05:40:14;;;;;;;0.40;0.20;;;16.30;57.80;;;;;;5090471;28;20028;-80
2021/12/10 05:42:41;;;;;;;0.40;0.40;;;16.30;57.70;;;;;;5086568;28;20036;-79
2021/12/10 05:45:08;;;;;;;1.02;0.30;;;16.30;57.80;;;;;;5091024;28;20550;-80
2021/12/10 05:47:34;;;;;;;0.90;0.40;;;16.30;57.70;;;;;;5072951;28;20481;-80
2021/12/10 05:50:00;;;;;;;0.50;0.30;;;16.30;57.70;;;;;;5080741;28;20021;-80
2021/12/10 05:52:26;;;;;;;1.02;0.50;;;16.30;57.70;;;;;;5070782;28;20138;-80
2021/12/10 05:54:52;;;;;;;0.70;0.30;;;16.30;57.70;;;;;;5081120;28;20411;-80
2021/12/10 05:57:18;;;;;;;0.85;0.30;;;16.30;57.70;;;;;;5074900;28;20107;-80
2021/12/10 05:59:44;;;;;;;0.35;0.30;;;16.30;57.70;;;;;;5077437;28;20518;-79
2021/12/10 06:02:10;;;;;;;0.60;0.40;;;16.30;57.70;;;;;;5062879;28;20042;-80
2021/12/10 06:04:37;;;;;;;0.85;0.40;;;16.30;57.70;;;;;;5077610;28;20115;-80
2021/12/10 06:07:04;;;;;;;1.17;0.55;;;16.30;57.70;;;;;;5091290;28;20513;-80
2021/12/10 06:09:30;;;;;;;1.10;0.30;;;16.40;57.80;;;;;;5080813;28;20103;-80
2021/12/10 06:11:56;;;;;;;0.40;0.30;;;16.30;57.70;;;;;;5092431;28;20066;-80
2021/12/10 06:14:21;;;;;;;0.25;0.22;;;16.40;57.70;;;;;;5091809;28;20494;-80
2021/12/10 06:16:47;;;;;;;0.30;0.20;;;16.40;57.70;;;;;;5084111;28;20027;-79
2021/12/10 06:19:13;;;;;;;0.40;0.28;;;16.40;57.70;;;;;;5091896;28;20028;-79
2021/12/10 06:21:39;;;;;;;0.73;0.35;;;16.40;57.60;;;;;;5094526;28;20105;-80
2021/12/10 06:24:06;;;;;;;0.32;0.20;;;16.40;57.60;;;;;;5093419;28;20078;-79
2021/12/10 06:26:32;;;;;;;0.25;0.25;;;16.40;57.60;;;;;;5085586;28;20402;-79
2021/12/10 06:28:58;;;;;;;0.93;0.35;;;16.40;57.70;;;;;;5092411;28;20028;-78
2021/12/10 06:31:24;;;;;;;0.30;0.20;;;16.50;57.70;;;;;;5081706;28;20020;-80
2021/12/10 06:33:51;;;;;;;1.33;0.60;;;16.50;57.70;;;;;;5094032;28;20024;-78
2021/12/10 06:36:20;;;;;;;0.40;0.30;;;16.50;57.80;;;;;;5093158;28;20077;-79
2021/12/10 06:38:47;;;;;;;0.40;0.20;;;16.50;57.60;;;;;;5093978;28;20030;-78
2021/12/10 06:41:14;;;;;;;0.47;0.20;;;16.50;57.70;;;;;;5093550;28;20020;-79
2021/12/10 06:43:40;;;;;;;0.52;0.30;;;16.50;57.70;;;;;;5083121;28;20009;-78
2021/12/10 06:46:06;;;;;;;0.47;0.30;;;16.50;57.80;;;;;;5076706;28;20133;-79
2021/12/10 06:48:33;;;;;;;0.68;0.30;;;16.50;57.80;;;;;;5093469;28;20071;-79
2021/12/10 06:51:03;;;;;;;0.32;0.20;;;16.50;58.30;;;;;;5093701;28;20020;-79
2021/12/10 06:53:29;;;;;;;1.05;0.28;;;16.50;57.60;;;;;;5093442;28;20023;-79
2021/12/10 06:55:56;;;;;;;1.25;0.30;;;16.50;57.60;;;;;;5093611;28;20020;-79
2021/12/10 06:58:24;;;;;;;0.55;0.20;;;16.50;57.70;;;;;;5093358;28;20035;-79
2021/12/10 07:00:52;;;;;;;0.38;0.30;;;16.50;57.70;;;;;;5091849;28;20407;-78
2021/12/10 07:03:21;;;;;;;0.60;0.30;;;16.60;57.80;;;;;;5073003;28;20040;-79
2021/12/10 07:05:48;;;;;;;0.70;0.30;;;16.60;57.90;;;;;;5084294;28;20115;-80
2021/12/10 07:08:15;;;;;;;0.95;0.30;;;16.60;58.10;;;;;;5093139;28;20499;-80
2021/12/10 07:10:41;;;;;;;0.60;0.35;;;16.60;58.10;;;;;;5093684;28;20121;-78
2021/12/10 07:13:08;;;;;;;0.75;0.30;;;16.60;58.10;;;;;;5093585;28;20023;-79
2021/12/10 07:15:39;;;;;;;3.33;0.40;;;16.60;58.10;;;;;;5092867;28;20106;-79
2021/12/10 07:18:05;;;;;;;1.02;0.35;;;16.60;58.10;;;;;;5073683;28;20021;-80
2021/12/10 07:20:31;;;;;;;1.95;0.30;;;16.70;58.20;;;;;;5072719;28;20032;-81
2021/12/10 07:22:57;;;;;;;2.50;0.68;;;16.70;58.30;;;;;;5074723;28;20129;-80
2021/12/10 07:25:22;;;;;;;0.70;0.30;;;16.60;58.60;;;;;;5073497;28;20028;-80
2021/12/10 07:27:49;;;;;;;0.98;0.32;;;16.70;58.60;;;;;;5072759;28;20035;-79
2021/12/10 07:30:17;;;;;;;0.82;0.30;;;16.70;58.70;;;;;;5085743;28;20019;-80
2021/12/10 07:32:43;;;;;;;1.90;0.63;;;16.70;58.80;;;;;;5092955;28;20059;-80
2021/12/10 07:35:09;;;;;;;6.05;0.38;;;16.70;58.90;;;;;;5093243;28;20024;-80
2021/12/10 07:37:36;;;;;;;1.25;0.40;;;16.60;58.90;;;;;;5072470;28;20474;-79
2021/12/10 07:40:06;;;;;;;2.75;0.40;;;16.60;58.90;;;;;;5092799;28;20032;-81
2021/12/10 07:42:32;;;;;;;1.73;0.40;;;16.60;58.80;;;;;;5092418;28;20776;-81
2021/12/10 07:44:58;;;;;;;4.05;0.40;;;16.60;58.90;;;;;;5090877;28;20035;-81
2021/12/10 07:47:24;;;;;;;2.50;0.47;;;16.60;58.90;;;;;;5077682;28;20050;-80
2021/12/10 07:49:50;;;;;;;0.75;0.30;;;16.60;58.90;;;;;;5092594;28;20061;-79
2021/12/10 07:52:22;;;;;;;1.20;0.40;;;16.60;59.00;;;;;;5081750;28;20037;-80
2021/12/10 07:54:49;;;;;;;0.32;0.30;;;16.70;59.00;;;;;;5080044;28;20099;-80
2021/12/10 07:57:17;;;;;;;5.38;3.03;;;16.70;58.90;;;;;;5091883;28;20547;-78
2021/12/10 07:59:43;;;;;;;5.93;2.35;;;16.60;58.90;;;;;;5092226;28;20089;-79
2021/12/10 08:02:10;;;;;;;7.80;3.17;;;16.70;59.00;;;;;;5092664;28;20027;-79
2021/12/10 08:04:37;;;;;;;7.00;3.33;;;16.70;59.60;;;;;;5091941;28;20052;-78
2021/12/10 08:07:03;;;;;;;5.80;2.60;;;16.70;59.10;;;;;;5090000;28;20458;-78
2021/12/10 08:09:29;;;;;;;4.53;2.90;;;16.70;59.10;;;;;;5092205;28;20067;-79
2021/12/10 08:11:54;;;;;;;4.90;3.20;;;16.60;59.10;;;;;;5092244;28;20051;-79
2021/12/10 08:14:20;;;;;;;3.58;2.35;;;16.60;59.20;;;;;;5091880;28;20070;-79
2021/12/10 08:16:46;;;;;;;2.78;1.88;;;16.70;59.30;;;;;;5091350;28;20070;-79
2021/12/10 08:19:12;;;;;;;6.18;3.03;;;16.70;59.30;;;;;;5091866;28;20027;-79
2021/12/10 08:21:40;;;;;;;5.90;2.38;;;16.60;59.30;;;;;;5089299;28;20452;-79
2021/12/10 08:24:06;;;;;;;4.10;2.17;;;16.60;59.30;;;;;;5071762;28;20070;-79
2021/12/10 08:26:31;;;;;;;2.78;1.92;;;16.60;59.30;;;;;;5071501;28;20476;-79
2021/12/10 08:28:57;;;;;;;3.90;2.00;;;16.60;59.40;;;;;;5071588;28;20423;-79
2021/12/10 08:31:23;;;;;;;3.47;1.48;;;16.60;59.70;;;;;;5071314;28;20036;-79
2021/12/10 08:33:49;;;;;;;3.25;1.63;;;16.60;59.40;;;;;;5071480;28;20062;-78
2021/12/10 08:36:18;;;;;;;1.85;1.38;;;16.60;60.00;;;;;;5071238;28;20077;-80
2021/12/10 08:38:45;;;;;;;2.20;1.30;;;16.60;59.50;;;;;;5091316;28;20016;-79
2021/12/10 08:41:15;;;;;;;4.18;1.60;;;16.60;59.50;;;;;;5091937;28;20498;-79
2021/12/10 08:43:42;;;;;;;2.47;1.75;;;16.60;59.50;;;;;;5092012;28;20357;-80
2021/12/10 08:46:09;;;;;;;2.33;1.25;;;16.60;59.50;;;;;;5091633;28;20040;-80
2021/12/10 08:48:36;;;;;;;3.30;1.30;;;16.50;59.50;;;;;;5091418;28;20097;-79
2021/12/10 08:51:10;;;;;;;2.50;1.70;;;16.50;59.50;;;;;;5091420;28;20032;-80
2021/12/10 08:53:36;;;;;;;3.25;1.35;;;16.50;60.00;;;;;;5072850;28;20033;-80
2021/12/10 08:56:02;;;;;;;1.52;0.98;;;16.50;59.50;;;;;;5071265;28;20730;-80
2021/12/10 08:58:28;;;;;;;2.97;1.52;;;16.50;59.50;;;;;;5070924;28;20025;-79
2021/12/10 09:01:16;;;;;;;2.55;1.10;;;16.50;59.50;;;;;;5071025;28;20488;-79
2021/12/10 09:03:44;;;;;;;2.55;1.35;;;16.50;59.50;;;;;;5055248;28;20576;-79
2021/12/10 09:06:11;;;;;;;4.80;1.17;;;16.50;59.50;;;;;;5071358;28;20043;-79
2021/12/10 09:08:37;;;;;;;3.70;1.17;;;16.50;60.00;;;;;;5071977;28;20354;-79
2021/12/10 09:11:04;;;;;;;1.98;1.02;;;16.50;59.50;;;;;;5071052;28;20028;-79
2021/12/10 09:13:30;;;;;;;3.53;1.38;;;16.50;59.50;;;;;;5070872;28;20023;-79
2021/12/10 09:16:00;;;;;;;2.35;1.13;;;16.50;59.50;;;;;;5071246;28;20025;-79
2021/12/10 09:18:27;;;;;;;2.55;1.20;;;16.50;59.50;;;;;;5070929;28;20020;-79
2021/12/10 09:20:57;;;;;;;4.43;1.00;;;16.50;59.50;;;;;;5071040;28;20021;-79
2021/12/10 09:23:25;;;;;;;2.17;0.90;;;16.50;59.50;;;;;;5052482;28;20043;-79
2021/12/10 09:25:56;;;;;;;1.90;1.00;;;16.50;59.60;;;;;;5070888;28;20029;-79
2021/12/10 09:28:24;;;;;;;1.50;1.00;;;16.50;59.60;;;;;;5072801;28;20380;-79
2021/12/10 09:30:53;;;;;;;2.08;0.77;;;16.40;59.50;;;;;;5075057;28;20512;-79
2021/12/10 09:33:19;;;;;;;1.17;0.60;;;16.50;59.60;;;;;;5074679;28;20484;-79
2021/12/10 09:35:46;;;;;;;1.23;0.73;;;16.50;59.50;;;;;;5075757;28;20028;-80
2021/12/10 09:38:12;;;;;;;2.42;0.75;;;16.50;59.50;;;;;;5056952;28;20024;-80
2021/12/10 09:40:47;;;;;;;2.08;0.80;;;16.40;59.40;;;;;;5075080;28;20196;-79
2021/12/10 09:43:14;;;;;;;1.35;0.75;;;16.40;59.40;;;;;;5074544;28;20401;-80
2021/12/10 09:45:42;;;;;;;2.20;0.90;;;16.40;59.40;;;;;;5074791;28;20035;-80
2021/12/10 09:48:09;;;;;;;2.90;0.60;;;16.40;59.40;;;;;;5075006;28;20021;-81
2021/12/10 09:50:46;;;;;;;1.02;0.70;;;16.40;59.30;;;;;;5074432;28;20020;-80
2021/12/10 09:53:12;;;;;;;3.70;0.75;;;16.40;59.30;;;;;;5090617;28;20077;-80
2021/12/10 09:55:40;;;;;;;1.60;0.60;;;16.40;59.30;;;;;;5095134;28;20032;-80
2021/12/10 09:58:06;;;;;;;1.42;0.80;;;16.40;59.30;;;;;;5094726;28;20513;-80
2021/12/10 10:00:49;;;;;;;1.55;0.70;;;16.40;59.20;;;;;;5094420;28;20122;-79
2021/12/10 10:03:17;;;;;;;1.88;0.68;;;16.40;59.20;;;;;;5094508;28;20016;-80
2021/12/10 10:05:45;;;;;;;0.70;0.43;;;16.40;59.20;;;;;;5076238;28;20040;-80
2021/12/10 10:08:15;;;;;;;1.75;0.60;;;16.40;59.20;;;;;;5092608;28;20430;-80
2021/12/10 10:10:45;;;;;;;3.00;0.65;;;16.40;59.20;;;;;;5092489;28;20024;-80
2021/12/10 10:13:12;;;;;;;1.00;0.45;;;16.40;59.10;;;;;;5094865;28;20031;-80
2021/12/10 10:15:41;;;;;;;1.13;0.47;;;16.40;59.10;;;;;;5094622;28;20027;-80
2021/12/10 10:18:09;;;;;;;1.95;0.60;;;16.40;59.10;;;;;;5094412;28;20023;-80
2021/12/10 10:20:45;;;;;;;2.13;0.73;;;16.40;59.10;;;;;;5094189;28;20039;-81
2021/12/10 10:23:12;;;;;;;1.20;0.47;;;16.40;59.10;;;;;;5094679;28;20018;-81
2021/12/10 10:25:42;;;;;;;0.93;0.40;;;16.40;59.10;;;;;;5079159;28;20032;-80
2021/12/10 10:28:10;;;;;;;1.25;0.50;;;16.40;59.00;;;;;;5074146;28;20110;-79
2021/12/10 10:30:43;;;;;;;1.38;0.70;;;16.30;59.00;;;;;;5073550;28;20020;-80
2021/12/10 10:33:10;;;;;;;1.52;0.70;;;16.40;59.00;;;;;;5074224;28;20021;-80
2021/12/10 10:35:45;;;;;;;3.08;0.73;;;16.40;59.00;;;;;;5073464;28;20401;-81
2021/12/10 10:38:13;;;;;;;1.05;0.40;;;16.40;59.00;;;;;;5056030;28;20032;-81
2021/12/10 10:40:44;;;;;;;1.83;0.65;;;16.40;59.00;;;;;;5087734;28;20042;-80
2021/12/10 10:43:10;;;;;;;2.08;0.63;;;16.40;58.90;;;;;;5094074;28;20042;-80
2021/12/10 10:45:41;;;;;;;1.70;0.50;;;16.40;58.90;;;;;;5093610;28;20028;-80
2021/12/10 10:48:07;;;;;;;0.55;0.40;;;16.40;58.90;;;;;;5094033;28;20141;-80
2021/12/10 10:50:40;;;;;;;1.60;0.40;;;16.40;58.90;;;;;;5093498;28;20028;-81
2021/12/10 10:53:12;;;;;;;1.35;0.55;;;16.40;59.40;;;;;;5093824;28;20013;-80
2021/12/10 10:55:49;;;;;;;1.38;0.63;;;16.40;58.80;;;;;;5092021;28;20020;-80
2021/12/10 10:58:17;;;;;;;1.15;0.43;;;16.40;58.80;;;;;;5093135;28;20430;-80
2021/12/10 11:01:00;;;;;;;1.08;0.63;;;16.40;58.80;;;;;;5091492;28;20502;-79
2021/12/10 11:03:42;;;;;;;1.23;0.40;;;16.40;58.80;;;;;;5093171;28;20069;-80
2021/12/10 11:06:16;;;;;;;1.75;0.60;;;16.40;58.80;;;;;;5093589;28;20040;-80
2021/12/10 11:08:47;;;;;;;2.70;0.75;;;16.40;58.80;;;;;;5088949;28;20479;-80
2021/12/10 11:11:15;;;;;;;1.77;0.55;;;16.40;58.80;;;;;;5074093;28;20068;-80
2021/12/10 11:13:44;;;;;;;1.35;0.40;;;16.40;58.70;;;;;;5073232;28;20107;-80
2021/12/10 11:16:15;;;;;;;1.95;0.70;;;16.40;58.80;;;;;;5087768;28;20039;-82
2021/12/10 11:18:49;;;;;;;1.80;0.60;;;16.50;59.20;;;;;;5077215;28;20069;-81
2021/12/10 11:21:31;;;;;;;1.98;0.52;;;16.50;59.30;;;;;;5073312;28;20028;-81
2021/12/10 11:24:46;;;;;;;1.67;0.63;;;16.50;59.30;;;;;;5072837;28;20149;-80
2021/12/10 11:27:19;;;;;;;1.33;0.50;;;16.60;59.30;;;;;;4991135;28;20165;-81
2021/12/10 11:29:52;;;;;;;2.33;0.77;;;16.70;59.30;;;;;;4991937;28;20039;-80
2021/12/10 11:32:30;;;;;;;1.88;0.50;;;16.80;59.20;;;;;;5037264;28;20032;-80
2021/12/10 11:35:15;;;;;;;1.63;0.60;;;16.80;59.20;;;;;;5072620;28;20024;-80
2021/12/10 11:38:00;;;;;;;1.65;0.50;;;16.90;59.10;;;;;;5072837;28;20081;-80
2021/12/10 11:40:46;;;;;;;1.75;0.65;;;17.00;59.10;;;;;;5084286;28;20035;-80
2021/12/10 11:48:36;;;;;;;2.35;0.52;;;17.20;58.90;;;;;;5092875;28;20032;-80
2021/12/10 11:51:15;;;;;;;1.30;0.50;;;17.20;58.80;;;;;;5079541;28;20036;-80
2021/12/10 11:53:48;;;;;;;1.60;0.50;;;17.30;59.40;;;;;;5054598;28;20031;-80
2021/12/10 11:56:22;;;;;;;1.58;0.63;;;17.30;58.80;;;;;;5053657;28;20040;-80
2021/12/10 11:59:07;;;;;;;1.67;0.50;;;17.40;58.70;;;;;;5072058;28;20075;-80
2021/12/10 12:01:56;;;;;;;5.32;0.65;;;17.40;58.70;;;;;;5078589;28;20032;-80
2021/12/10 12:04:24;;;;;;;1.42;0.60;;;17.50;58.60;;;;;;5083793;28;20021;-80
2021/12/10 12:07:21;;;;;;;1.42;0.45;;;17.60;58.60;;;;;;5053966;28;20078;-80
2021/12/10 12:10:16;;;;;;;1.48;0.50;;;17.60;58.60;;;;;;5086167;28;20031;-80
2021/12/10 12:12:48;;;;;;;1.88;0.60;;;17.60;58.50;;;;;;5089016;28;20548;-80
2021/12/10 12:15:36;;;;;;;2.50;0.63;;;17.70;58.40;;;;;;5080311;28;20024;-80
2021/12/10 12:18:06;;;;;;;1.70;0.55;;;17.80;58.30;;;;;;5091878;28;20199;-80
2021/12/10 12:20:48;;;;;;;1.75;0.50;;;17.80;58.30;;;;;;5075862;28;20120;-80
2021/12/10 12:26:08;;;;;;;2.17;0.70;;;17.90;58.10;;;;;;5090668;28;20047;-79
2021/12/10 12:28:39;;;;;;;1.52;0.70;;;17.90;57.90;;;;;;5091668;28;20020;-80
2021/12/10 12:31:08;;;;;;;1.85;0.40;;;18.00;57.90;;;;;;5091194;28;20103;-79
2021/12/10 12:34:00;;;;;;;4.38;0.60;;;18.00;57.90;;;;;;5073443;28;20032;-79
2021/12/10 12:36:36;;;;;;;2.03;0.47;;;18.10;57.80;;;;;;5044609;28;20033;-79
2021/12/10 12:39:15;;;;;;;2.28;0.68;;;18.20;57.80;;;;;;5091714;28;20032;-79
2021/12/10 12:41:47;;;;;;;2.65;0.93;;;18.30;57.70;;;;;;5071252;28;20431;-79
2021/12/10 12:44:19;;;;;;;1.65;0.60;;;18.30;57.40;;;;;;5082924;28;20431;-79
2021/12/10 12:46:58;;;;;;;2.25;0.55;;;18.30;57.60;;;;;;5091619;28;20043;-79
2021/12/10 12:49:25;;;;;;;1.63;0.52;;;18.40;57.40;;;;;;5091319;28;20024;-79
2021/12/10 12:52:12;;;;;;;2.83;0.82;;;18.40;57.40;;;;;;5088971;28;20023;-79
2021/12/10 12:54:43;;;;;;;1.55;0.52;;;18.50;57.40;;;;;;5081044;28;20481;-79
2021/12/10 12:57:10;;;;;;;1.90;0.70;;;18.50;57.30;;;;;;5072855;28;20028;-78
2021/12/10 12:59:37;;;;;;;1.30;0.52;;;18.50;57.10;;;;;;5075932;28;20124;-80
2021/12/10 13:02:07;;;;;;;2.28;0.70;;;18.50;57.00;;;;;;5091127;28;20099;-79
2021/12/10 13:04:38;;;;;;;2.72;0.70;;;18.50;57.00;;;;;;5078037;28;20036;-80
2021/12/10 13:07:21;;;;;;;1.83;0.60;;;18.50;56.90;;;;;;5078645;28;20044;-83
2021/12/10 13:09:54;;;;;;;4.95;0.70;;;18.50;57.00;;;;;;5072557;28;20488;-81
2021/12/10 13:13:07;;;;;;;1.80;0.60;;;18.60;56.90;;;;;;5070815;28;20511;-81
2021/12/10 13:15:33;;;;;;;3.33;0.95;;;18.50;56.80;;;;;;5071241;28;20025;-82
2021/12/10 13:18:05;;;;;;;2.08;0.88;;;18.50;56.90;;;;;;5074486;28;20082;-81